Time;durP1;ratioP1;P1;durP2;ratioP2;P2;SDS_P1;SDS_P2;PMS_P1;PMS_P2;Temp;Humidity;BMP_temperature;BMP_pressure;BME280_temperature;BME280_humidity;BME280_pressure;Samples;Min_cycle;Max_cycle;Signal;HPM_P1;HPM_P2
2023/09/30 00:00:58;;;;;;;11.37;4.87;;;;;;;;;;5061133;28;20255;-73
2023/09/30 00:03:27;;;;;;;12.87;4.90;;;;;;;;;;5060506;28;20293;-74
2023/09/30 00:05:56;;;;;;;13.53;5.57;;;;;;;;;;5061376;28;20207;-72
2023/09/30 00:08:23;;;;;;;11.87;4.77;;;;;;;;;;5061054;28;20227;-74
2023/09/30 00:10:53;;;;;;;13.20;5.20;;;;;;;;;;5060810;28;20330;-74
2023/09/30 00:13:21;;;;;;;12.67;5.07;;;;;;;;;;5060802;28;20638;-73
2023/09/30 00:15:49;;;;;;;15.17;5.03;;;;;;;;;;5060740;28;20569;-74
2023/09/30 00:18:17;;;;;;;10.27;4.67;;;;;;;;;;5060797;28;20211;-74
2023/09/30 00:20:47;;;;;;;12.23;5.10;;;;;;;;;;5060666;28;20302;-74
2023/09/30 00:23:14;;;;;;;12.60;4.83;;;;;;;;;;5060722;28;20244;-74
2023/09/30 00:25:42;;;;;;;11.87;5.30;;;;;;;;;;5050227;28;20214;-74
2023/09/30 00:28:10;;;;;;;14.77;5.33;;;;;;;;;;5060823;28;20225;-74
2023/09/30 00:30:38;;;;;;;15.47;4.40;;;;;;;;;;5061173;28;20265;-74
2023/09/30 00:33:06;;;;;;;12.23;4.53;;;;;;;;;;5060503;28;20550;-74
2023/09/30 00:35:35;;;;;;;14.30;5.20;;;;;;;;;;5060912;28;20234;-74
2023/09/30 00:38:04;;;;;;;13.67;5.83;;;;;;;;;;5060153;28;20209;-74
2023/09/30 00:40:32;;;;;;;12.07;5.20;;;;;;;;;;5059728;28;20241;-73
2023/09/30 00:43:00;;;;;;;14.17;5.23;;;;;;;;;;5060413;28;20238;-73
2023/09/30 00:45:29;;;;;;;13.43;5.20;;;;;;;;;;5060149;28;20210;-74
2023/09/30 00:47:57;;;;;;;10.80;4.97;;;;;;;;;;5060118;28;20240;-73
2023/09/30 00:50:26;;;;;;;11.13;4.57;;;;;;;;;;5060305;28;20222;-73
2023/09/30 00:52:54;;;;;;;12.03;4.87;;;;;;;;;;5060307;28;20673;-72
2023/09/30 00:55:24;;;;;;;13.13;5.70;;;;;;;;;;5060273;28;20271;-74
2023/09/30 00:57:52;;;;;;;14.07;5.30;;;;;;;;;;5059990;28;20734;-72
2023/09/30 01:00:21;;;;;;;11.43;4.80;;;;;;;;;;5059816;28;20309;-74
2023/09/30 01:02:49;;;;;;;15.73;5.47;;;;;;;;;;5059771;28;20251;-74
2023/09/30 01:05:17;;;;;;;12.63;4.93;;;;;;;;;;5059819;28;20668;-73
2023/09/30 01:07:45;;;;;;;14.67;5.23;;;;;;;;;;5059999;28;20292;-74
2023/09/30 01:10:13;;;;;;;13.20;5.30;;;;;;;;;;5058803;28;20237;-74
2023/09/30 01:12:42;;;;;;;11.70;5.00;;;;;;;;;;5059976;28;20205;-74
2023/09/30 01:15:11;;;;;;;15.17;5.70;;;;;;;;;;5059893;28;20287;-73
2023/09/30 01:17:39;;;;;;;14.00;4.97;;;;;;;;;;5059884;28;20212;-73
2023/09/30 01:20:08;;;;;;;17.10;5.63;;;;;;;;;;5059483;28;20221;-74
2023/09/30 01:22:38;;;;;;;10.53;5.07;;;;;;;;;;5059513;28;20205;-74
2023/09/30 01:25:06;;;;;;;13.60;5.50;;;;;;;;;;5059464;28;20212;-74
2023/09/30 01:27:34;;;;;;;12.67;5.03;;;;;;;;;;5059749;28;20207;-74
2023/09/30 01:30:05;;;;;;;14.60;5.27;;;;;;;;;;5059285;28;20318;-74
2023/09/30 01:32:36;;;;;;;10.77;5.07;;;;;;;;;;5059221;28;20263;-74
2023/09/30 01:35:04;;;;;;;11.37;4.53;;;;;;;;;;5059373;28;20264;-74
2023/09/30 01:37:32;;;;;;;14.70;5.07;;;;;;;;;;5059303;28;20683;-74
2023/09/30 01:40:03;;;;;;;11.33;4.37;;;;;;;;;;5059210;28;20300;-74
2023/09/30 01:42:31;;;;;;;16.17;5.47;;;;;;;;;;5059063;28;20640;-74
2023/09/30 01:44:59;;;;;;;14.37;5.40;;;;;;;;;;5059380;28;20242;-74
2023/09/30 01:47:27;;;;;;;14.73;5.07;;;;;;;;;;5059004;28;20300;-74
2023/09/30 01:49:55;;;;;;;12.17;5.10;;;;;;;;;;5058695;28;20319;-74
2023/09/30 01:52:23;;;;;;;14.90;4.80;;;;;;;;;;5059138;28;20204;-74
2023/09/30 01:54:51;;;;;;;13.07;5.63;;;;;;;;;;5058862;28;20214;-74
2023/09/30 01:57:21;;;;;;;18.37;5.77;;;;;;;;;;5059083;28;20212;-74
2023/09/30 01:59:49;;;;;;;9.57;4.63;;;;;;;;;;5058728;28;20228;-74
2023/09/30 02:02:17;;;;;;;14.20;4.93;;;;;;;;;;5058766;28;20230;-74
2023/09/30 02:04:45;;;;;;;14.77;5.73;;;;;;;;;;5058506;28;20210;-74
2023/09/30 02:07:13;;;;;;;12.53;4.80;;;;;;;;;;5058903;28;20213;-74
2023/09/30 02:09:41;;;;;;;15.93;5.67;;;;;;;;;;5058342;28;20230;-74
2023/09/30 02:12:09;;;;;;;11.30;5.00;;;;;;;;;;5058740;28;20202;-74
2023/09/30 02:14:39;;;;;;;18.33;5.30;;;;;;;;;;5058881;28;20211;-74
2023/09/30 02:17:07;;;;;;;9.37;5.00;;;;;;;;;;5058568;28;20644;-74
2023/09/30 02:19:35;;;;;;;11.90;5.37;;;;;;;;;;5058262;28;20202;-74
2023/09/30 02:22:06;;;;;;;11.97;5.13;;;;;;;;;;5057921;28;20641;-74
2023/09/30 02:24:34;;;;;;;13.37;4.73;;;;;;;;;;5056827;28;20292;-74
2023/09/30 02:27:02;;;;;;;9.40;4.33;;;;;;;;;;5049718;28;20292;-75
2023/09/30 02:29:31;;;;;;;12.47;4.97;;;;;;;;;;5058287;28;20290;-74
2023/09/30 02:32:00;;;;;;;12.40;5.00;;;;;;;;;;5058518;28;20241;-74
2023/09/30 02:34:28;;;;;;;14.03;5.47;;;;;;;;;;5058091;28;20209;-74
2023/09/30 02:36:56;;;;;;;13.40;5.30;;;;;;;;;;5058386;28;20216;-74
2023/09/30 02:39:26;;;;;;;15.23;5.63;;;;;;;;;;5057865;28;20237;-74
2023/09/30 02:41:54;;;;;;;14.70;5.63;;;;;;;;;;5058049;28;20700;-74
2023/09/30 02:44:22;;;;;;;11.80;5.07;;;;;;;;;;5058200;28;20292;-75
2023/09/30 02:46:50;;;;;;;11.23;4.97;;;;;;;;;;5058236;28;20217;-74
2023/09/30 02:49:19;;;;;;;17.70;5.50;;;;;;;;;;5057809;28;20312;-74
2023/09/30 02:51:47;;;;;;;12.13;5.90;;;;;;;;;;5058172;28;20261;-74
2023/09/30 02:54:17;;;;;;;14.33;5.37;;;;;;;;;;5058268;28;20583;-74
2023/09/30 02:56:46;;;;;;;12.83;4.40;;;;;;;;;;5057914;28;20204;-74
2023/09/30 02:59:14;;;;;;;14.10;5.37;;;;;;;;;;5057933;28;20219;-74
2023/09/30 03:01:42;;;;;;;10.87;4.47;;;;;;;;;;5057948;28;20230;-74
2023/09/30 03:04:12;;;;;;;11.83;4.77;;;;;;;;;;5057707;28;20216;-74
2023/09/30 03:06:42;;;;;;;16.30;5.23;;;;;;;;;;5057942;28;20219;-74
2023/09/30 03:09:12;;;;;;;15.43;5.30;;;;;;;;;;5057915;28;20208;-74
2023/09/30 03:11:42;;;;;;;12.83;5.17;;;;;;;;;;5057478;28;20715;-74
2023/09/30 03:14:10;;;;;;;17.03;5.23;;;;;;;;;;5057596;28;20689;-74
2023/09/30 03:16:41;;;;;;;17.63;5.63;;;;;;;;;;5057528;28;20299;-74
2023/09/30 03:19:11;;;;;;;13.30;4.97;;;;;;;;;;5057436;28;20207;-74
2023/09/30 03:21:39;;;;;;;11.53;5.00;;;;;;;;;;5057861;28;20320;-74
2023/09/30 03:24:09;;;;;;;14.90;4.60;;;;;;;;;;5057594;28;20614;-74
2023/09/30 03:26:40;;;;;;;15.03;5.57;;;;;;;;;;5057404;28;20557;-74
2023/09/30 03:29:09;;;;;;;12.23;4.73;;;;;;;;;;5057704;28;20205;-74
2023/09/30 03:31:37;;;;;;;14.73;5.83;;;;;;;;;;5057698;28;20659;-74
2023/09/30 03:34:06;;;;;;;12.13;4.83;;;;;;;;;;5061526;28;20267;-74
2023/09/30 03:36:35;;;;;;;13.80;5.07;;;;;;;;;;5061807;28;20207;-74
2023/09/30 03:39:06;;;;;;;14.17;5.40;;;;;;;;;;5061581;28;20209;-74
2023/09/30 03:41:36;;;;;;;11.23;5.27;;;;;;;;;;5061613;28;20280;-74
2023/09/30 03:44:05;;;;;;;11.80;4.90;;;;;;;;;;5061577;28;20244;-74
2023/09/30 03:46:33;;;;;;;12.20;5.30;;;;;;;;;;5061425;28;20316;-75
2023/09/30 03:49:02;;;;;;;14.93;5.83;;;;;;;;;;5061280;28;20272;-74
2023/09/30 03:51:30;;;;;;;15.87;5.37;;;;;;;;;;5061243;28;20615;-74
2023/09/30 03:53:58;;;;;;;15.30;5.20;;;;;;;;;;5061030;28;20240;-74
2023/09/30 03:56:26;;;;;;;14.27;5.30;;;;;;;;;;5061391;28;20732;-74
2023/09/30 03:58:56;;;;;;;12.73;4.93;;;;;;;;;;5061317;28;20213;-74
2023/09/30 04:01:26;;;;;;;10.23;4.90;;;;;;;;;;5060892;28;20307;-75
2023/09/30 04:03:56;;;;;;;13.20;6.17;;;;;;;;;;5060591;28;20269;-74
2023/09/30 04:06:24;;;;;;;15.43;4.87;;;;;;;;;;5061083;28;20556;-74
2023/09/30 04:08:52;;;;;;;12.90;5.20;;;;;;;;;;5061053;28;20228;-74
2023/09/30 04:11:20;;;;;;;14.27;5.83;;;;;;;;;;5060674;28;20286;-74
2023/09/30 04:13:49;;;;;;;13.20;5.37;;;;;;;;;;5047771;28;20245;-74
2023/09/30 04:16:19;;;;;;;10.07;4.80;;;;;;;;;;5060741;28;20205;-74
2023/09/30 04:18:50;;;;;;;11.03;4.77;;;;;;;;;;5060737;28;20575;-74
2023/09/30 04:21:18;;;;;;;10.60;4.90;;;;;;;;;;5060732;28;20598;-74
2023/09/30 04:23:46;;;;;;;10.30;4.97;;;;;;;;;;5060861;28;20214;-73
2023/09/30 04:26:14;;;;;;;11.67;4.63;;;;;;;;;;5058469;28;20605;-72
2023/09/30 04:28:43;;;;;;;16.03;5.97;;;;;;;;;;5052521;28;20636;-73
2023/09/30 04:31:13;;;;;;;12.37;5.10;;;;;;;;;;5060502;28;20238;-74
2023/09/30 04:33:45;;;;;;;12.57;4.50;;;;;;;;;;5060352;28;20294;-73
2023/09/30 04:36:13;;;;;;;8.20;4.10;;;;;;;;;;5060421;28;20214;-73
2023/09/30 04:38:41;;;;;;;11.40;5.07;;;;;;;;;;5060652;28;20292;-73
2023/09/30 04:41:10;;;;;;;17.27;6.13;;;;;;;;;;5060148;28;20632;-73
2023/09/30 04:43:39;;;;;;;15.10;5.37;;;;;;;;;;5059333;28;20204;-74
2023/09/30 04:46:08;;;;;;;14.47;4.87;;;;;;;;;;5050482;28;20211;-73
2023/09/30 04:48:36;;;;;;;12.57;4.90;;;;;;;;;;5060586;28;20209;-72
2023/09/30 04:51:09;;;;;;;12.57;5.47;;;;;;;;;;5060318;28;20232;-73
2023/09/30 04:53:38;;;;;;;14.83;5.50;;;;;;;;;;5060476;28;20216;-74
2023/09/30 04:56:06;;;;;;;13.53;4.97;;;;;;;;;;5059995;28;20298;-74
2023/09/30 04:58:34;;;;;;;12.70;4.97;;;;;;;;;;5060314;28;20246;-73
2023/09/30 05:01:02;;;;;;;14.40;5.27;;;;;;;;;;5060095;28;20227;-74
2023/09/30 05:03:30;;;;;;;12.47;4.77;;;;;;;;;;5059264;28;20243;-74
2023/09/30 05:05:59;;;;;;;11.20;4.43;;;;;;;;;;5060174;28;20301;-74
2023/09/30 05:08:28;;;;;;;14.13;5.00;;;;;;;;;;5059871;28;20643;-74
2023/09/30 05:10:56;;;;;;;11.50;4.83;;;;;;;;;;5059893;28;20236;-73
2023/09/30 05:13:24;;;;;;;13.80;5.13;;;;;;;;;;5059721;28;20241;-72
2023/09/30 05:15:53;;;;;;;12.80;5.03;;;;;;;;;;5059948;28;20293;-72
2023/09/30 05:18:21;;;;;;;13.80;5.00;;;;;;;;;;5059882;28;20212;-72
2023/09/30 05:20:50;;;;;;;12.63;4.80;;;;;;;;;;5060089;28;20692;-72
2023/09/30 05:23:18;;;;;;;12.77;5.27;;;;;;;;;;5059641;28;20231;-72
2023/09/30 05:25:48;;;;;;;10.67;4.50;;;;;;;;;;5059438;28;20638;-73
2023/09/30 05:28:16;;;;;;;14.00;4.90;;;;;;;;;;5059659;28;20242;-74
2023/09/30 05:30:45;;;;;;;10.77;4.87;;;;;;;;;;5059765;28;20322;-72
2023/09/30 05:33:14;;;;;;;13.93;4.63;;;;;;;;;;5059074;28;20210;-72
2023/09/30 05:35:42;;;;;;;10.37;4.40;;;;;;;;;;5059625;28;20647;-72
2023/09/30 05:38:12;;;;;;;15.40;5.00;;;;;;;;;;5059442;28;20266;-74
2023/09/30 05:40:41;;;;;;;12.13;4.57;;;;;;;;;;5059367;28;20757;-73
2023/09/30 05:43:13;;;;;;;14.93;4.93;;;;;;;;;;5059124;28;20203;-74
2023/09/30 05:45:48;;;;;;;10.73;5.27;;;;;;;;;;5057891;28;20226;-73
2023/09/30 05:48:17;;;;;;;13.20;4.70;;;;;;;;;;5056445;28;20225;-72
2023/09/30 05:50:46;;;;;;;13.17;5.37;;;;;;;;;;5056598;28;20631;-73
2023/09/30 05:53:14;;;;;;;17.93;5.63;;;;;;;;;;5058253;28;20214;-73
2023/09/30 05:55:43;;;;;;;14.30;5.77;;;;;;;;;;5053033;28;20671;-72
2023/09/30 05:58:14;;;;;;;13.83;4.70;;;;;;;;;;5059073;28;20206;-71
2023/09/30 06:00:43;;;;;;;12.17;4.87;;;;;;;;;;5057795;28;20306;-72
2023/09/30 06:03:11;;;;;;;14.17;4.90;;;;;;;;;;5055582;28;20227;-71
2023/09/30 06:05:42;;;;;;;12.03;4.53;;;;;;;;;;5056357;28;20205;-73
2023/09/30 06:08:13;;;;;;;13.30;5.17;;;;;;;;;;5055651;28;20230;-73
2023/09/30 06:10:43;;;;;;;13.97;4.53;;;;;;;;;;5056415;28;20219;-71
2023/09/30 06:13:13;;;;;;;15.50;5.27;;;;;;;;;;5058601;28;20206;-72
2023/09/30 06:15:41;;;;;;;12.40;5.10;;;;;;;;;;5047597;28;20218;-73
2023/09/30 06:18:13;;;;;;;13.50;4.43;;;;;;;;;;5058659;28;20325;-73
2023/09/30 06:20:42;;;;;;;12.07;4.87;;;;;;;;;;5058061;28;20225;-73
2023/09/30 06:23:10;;;;;;;15.70;5.27;;;;;;;;;;5056592;28;20278;-73
2023/09/30 06:25:39;;;;;;;14.20;4.97;;;;;;;;;;5057543;28;20215;-73
2023/09/30 06:28:08;;;;;;;14.40;5.07;;;;;;;;;;5055386;28;20272;-73
2023/09/30 06:30:38;;;;;;;14.87;5.27;;;;;;;;;;5054723;28;20226;-71
2023/09/30 06:33:07;;;;;;;13.67;4.47;;;;;;;;;;5053354;28;20690;-72
2023/09/30 06:35:38;;;;;;;11.37;4.63;;;;;;;;;;5056772;28;20200;-73
2023/09/30 06:38:07;;;;;;;14.33;5.07;;;;;;;;;;5050772;28;20267;-72
2023/09/30 06:40:36;;;;;;;11.27;4.57;;;;;;;;;;5055942;28;20227;-72
2023/09/30 06:43:07;;;;;;;14.10;4.53;;;;;;;;;;5053117;28;20200;-71
2023/09/30 06:45:41;;;;;;;13.30;5.40;;;;;;;;;;5054861;28;20226;-72
2023/09/30 06:48:12;;;;;;;13.53;4.80;;;;;;;;;;5057155;28;20286;-71
2023/09/30 06:50:41;;;;;;;14.70;4.90;;;;;;;;;;5057268;28;20272;-71
2023/09/30 06:53:09;;;;;;;13.40;5.43;;;;;;;;;;5057529;28;20227;-72
2023/09/30 06:55:38;;;;;;;14.33;4.97;;;;;;;;;;5057530;28;20217;-71
2023/09/30 06:58:07;;;;;;;10.80;4.13;;;;;;;;;;5056848;28;20880;-72
2023/09/30 07:00:35;;;;;;;14.37;4.63;;;;;;;;;;5057311;28;20223;-72
2023/09/30 07:03:04;;;;;;;10.43;4.30;;;;;;;;;;5057361;28;20243;-72
2023/09/30 07:05:34;;;;;;;10.60;4.90;;;;;;;;;;5057592;28;20781;-72
2023/09/30 07:08:01;;;;;;;13.60;4.87;;;;;;;;;;5057213;28;20290;-73
2023/09/30 07:10:30;;;;;;;14.33;4.77;;;;;;;;;;5057030;28;20284;-73
2023/09/30 07:12:57;;;;;;;9.27;4.47;;;;;;;;;;5048457;28;20325;-72
2023/09/30 07:15:26;;;;;;;11.40;4.17;;;;;;;;;;5057865;28;20211;-72
2023/09/30 07:17:54;;;;;;;9.50;4.23;;;;;;;;;;5057423;28;20207;-73
2023/09/30 07:20:22;;;;;;;11.17;4.43;;;;;;;;;;5057484;28;20227;-72
2023/09/30 07:22:52;;;;;;;13.50;4.27;;;;;;;;;;5057769;28;20670;-72
2023/09/30 07:25:40;;;;;;;11.10;4.57;;;;;;;;;;5057532;28;20207;-72
2023/09/30 07:28:11;;;;;;;10.43;4.20;;;;;;;;;;5057806;28;20207;-72
2023/09/30 07:30:40;;;;;;;15.20;5.10;;;;;;;;;;5055653;28;20225;-72
2023/09/30 07:33:08;;;;;;;10.07;4.10;;;;;;;;;;5050740;28;20225;-72
2023/09/30 07:35:36;;;;;;;10.10;3.97;;;;;;;;;;5057385;28;20217;-72
2023/09/30 07:38:06;;;;;;;11.93;4.47;;;;;;;;;;5057129;28;20284;-71
2023/09/30 07:40:34;;;;;;;11.83;5.20;;;;;;;;;;5045823;28;20215;-72
2023/09/30 07:43:01;;;;;;;12.53;3.83;;;;;;;;;;5057376;28;20207;-72
2023/09/30 07:45:30;;;;;;;10.40;3.90;;;;;;;;;;5057365;28;20298;-71
2023/09/30 07:47:59;;;;;;;12.60;4.87;;;;;;;;;;5057015;28;20233;-71
2023/09/30 07:50:27;;;;;;;11.40;4.13;;;;;;;;;;5057172;28;20224;-72
2023/09/30 07:52:55;;;;;;;14.43;4.87;;;;;;;;;;5056700;28;20231;-73
2023/09/30 07:55:24;;;;;;;10.50;4.30;;;;;;;;;;5056800;28;20634;-71
2023/09/30 07:57:52;;;;;;;9.13;4.43;;;;;;;;;;5054993;28;20236;-71
2023/09/30 08:00:21;;;;;;;9.63;4.63;;;;;;;;;;5052779;28;20228;-72
2023/09/30 08:02:50;;;;;;;9.77;4.63;;;;;;;;;;5056618;28;20266;-73
2023/09/30 08:05:18;;;;;;;12.37;4.43;;;;;;;;;;5056878;28;20688;-74
2023/09/30 08:07:47;;;;;;;14.50;4.70;;;;;;;;;;5057070;28;20207;-74
2023/09/30 08:10:16;;;;;;;12.60;4.63;;;;;;;;;;5056682;28;20571;-71
2023/09/30 08:12:48;;;;;;;11.67;4.03;;;;;;;;;;5056736;28;20289;-71
2023/09/30 08:15:16;;;;;;;11.90;4.27;;;;;;;;;;5056709;28;20376;-72
2023/09/30 08:17:45;;;;;;;11.87;4.57;;;;;;;;;;5056925;28;20569;-73
2023/09/30 08:20:13;;;;;;;6.83;3.60;;;;;;;;;;5060305;28;20229;-73
2023/09/30 08:22:42;;;;;;;10.07;4.33;;;;;;;;;;5060567;28;20205;-73
2023/09/30 08:25:10;;;;;;;15.93;5.07;;;;;;;;;;5060387;28;20254;-73
2023/09/30 08:27:38;;;;;;;8.27;3.80;;;;;;;;;;5060359;28;20211;-71
2023/09/30 08:30:10;;;;;;;12.43;4.33;;;;;;;;;;5060495;28;20229;-72
2023/09/30 08:32:38;;;;;;;14.53;4.67;;;;;;;;;;5060265;28;20249;-72
2023/09/30 08:35:08;;;;;;;9.63;4.33;;;;;;;;;;5060645;28;20214;-72
2023/09/30 08:37:36;;;;;;;11.90;4.37;;;;;;;;;;5060842;28;20220;-72
2023/09/30 08:40:05;;;;;;;12.03;4.90;;;;;;;;;;5060187;28;20352;-73
2023/09/30 08:42:34;;;;;;;10.13;4.60;;;;;;;;;;5059912;28;20597;-75
2023/09/30 08:45:03;;;;;;;8.47;4.17;;;;;;;;;;5060609;28;20290;-74
2023/09/30 08:47:34;;;;;;;11.17;4.57;;;;;;;;;;5060211;28;20201;-74
2023/09/30 08:50:05;;;;;;;12.53;4.20;;;;;;;;;;5059697;28;20322;-74
2023/09/30 08:52:34;;;;;;;11.00;4.50;;;;;;;;;;5056251;28;20275;-74
2023/09/30 08:55:08;;;;;;;13.63;8.60;;;;;;;;;;5059576;28;20206;-72
2023/09/30 08:57:38;;;;;;;11.03;4.90;;;;;;;;;;5047212;28;20207;-69
2023/09/30 09:00:06;;;;;;;13.93;5.07;;;;;;;;;;5060087;28;20223;-70
2023/09/30 09:02:36;;;;;;;10.03;4.37;;;;;;;;;;5059930;28;20273;-69
2023/09/30 09:05:04;;;;;;;11.37;5.10;;;;;;;;;;5049620;28;20212;-69
2023/09/30 09:07:33;;;;;;;11.00;4.63;;;;;;;;;;5059862;28;20239;-70
2023/09/30 09:10:05;;;;;;;14.23;5.03;;;;;;;;;;5059761;28;20741;-70
2023/09/30 09:12:34;;;;;;;11.40;4.50;;;;;;;;;;5069158;28;20291;-70
2023/09/30 09:15:02;;;;;;;11.97;5.20;;;;;;;;;;5054990;28;20207;-70
2023/09/30 09:17:43;;;;;;;11.80;4.67;;;;;;;;;;5059455;28;20219;-70
2023/09/30 09:20:13;;;;;;;9.30;4.97;;;;;;;;;;5059506;28;20233;-71
2023/09/30 09:22:42;;;;;;;12.33;4.77;;;;;;;;;;5059721;28;20236;-70
2023/09/30 09:25:10;;;;;;;14.40;4.37;;;;;;;;;;5059736;28;20222;-70
2023/09/30 09:27:39;;;;;;;10.67;5.43;;;;;;;;;;5059525;28;20240;-69
2023/09/30 09:30:16;;;;;;;15.53;5.17;;;;;;;;;;5059014;28;20228;-70
2023/09/30 09:33:03;;;;;;;11.93;4.77;;;;;;;;;;5059315;28;20235;-71
2023/09/30 09:35:33;;;;;;;13.40;5.33;;;;;;;;;;5059576;28;20208;-71
2023/09/30 09:38:02;;;;;;;11.43;4.97;;;;;;;;;;5059454;28;20212;-71
2023/09/30 09:40:30;;;;;;;11.40;5.33;;;;;;;;;;5058964;28;20624;-70
2023/09/30 09:42:59;;;;;;;12.73;5.43;;;;;;;;;;5059483;28;20204;-69
2023/09/30 09:45:30;;;;;;;15.87;5.60;;;;;;;;;;5059461;28;20208;-71
2023/09/30 09:47:59;;;;;;;11.37;5.73;;;;;;;;;;5059166;28;20211;-71
2023/09/30 09:50:29;;;;;;;11.93;5.27;;;;;;;;;;5059344;28;20260;-70
2023/09/30 09:52:59;;;;;;;16.63;7.50;;;;;;;;;;5059262;28;20292;-71
2023/09/30 09:55:27;;;;;;;15.17;5.47;;;;;;;;;;5059301;28;20297;-69
2023/09/30 09:57:55;;;;;;;12.43;5.60;;;;;;;;;;5059100;28;20209;-69
2023/09/30 10:00:24;;;;;;;13.03;5.43;;;;;;;;;;5058739;28;20283;-69
2023/09/30 10:02:52;;;;;;;10.67;5.20;;;;;;;;;;5058550;28;20248;-71
2023/09/30 10:05:21;;;;;;;13.37;6.27;;;;;;;;;;5058672;28;20207;-69
2023/09/30 10:07:53;;;;;;;12.40;6.00;;;;;;;;;;5058898;28;20217;-69
2023/09/30 10:10:22;;;;;;;11.53;5.30;;;;;;;;;;5058608;28;20261;-70
2023/09/30 10:12:50;;;;;;;15.30;6.90;;;;;;;;;;5058782;28;20272;-71
2023/09/30 10:15:39;;;;;;;12.03;5.23;;;;;;;;;;5058715;28;20238;-73
2023/09/30 10:18:09;;;;;;;11.87;6.60;;;;;;;;;;5058533;28;20219;-73
2023/09/30 10:20:44;;;;;;;13.17;6.47;;;;;;;;;;5058475;28;20240;-72
2023/09/30 10:23:25;;;;;;;14.53;6.17;;;;;;;;;;5058450;28;20571;-73
2023/09/30 10:25:57;;;;;;;13.47;5.30;;;;;;;;;;5058462;28;20212;-74
2023/09/30 10:28:38;;;;;;;12.77;6.20;;;;;;;;;;5056477;28;20273;-74
2023/09/30 10:31:10;;;;;;;12.53;5.73;;;;;;;;;;5050800;28;20230;-74
2023/09/30 10:33:58;;;;;;;10.77;5.63;;;;;;;;;;5057845;28;20233;-73
2023/09/30 10:36:27;;;;;;;11.47;5.90;;;;;;;;;;5058046;28;20626;-72
2023/09/30 10:38:57;;;;;;;43.17;22.63;;;;;;;;;;5058407;28;20206;-73
2023/09/30 10:41:45;;;;;;;51.70;29.70;;;;;;;;;;5057099;28;20255;-73
2023/09/30 10:44:32;;;;;;;41.83;25.13;;;;;;;;;;5058245;28;20202;-72
2023/09/30 10:47:00;;;;;;;20.27;11.00;;;;;;;;;;5057940;28;20298;-71
2023/09/30 10:49:35;;;;;;;14.33;7.23;;;;;;;;;;5057915;28;20210;-73
2023/09/30 10:52:03;;;;;;;30.27;16.83;;;;;;;;;;5058390;28;20211;-74
2023/09/30 10:54:33;;;;;;;20.33;12.80;;;;;;;;;;5057647;28;20698;-74
2023/09/30 10:57:03;;;;;;;20.57;10.13;;;;;;;;;;5057820;28;20211;-74
2023/09/30 10:59:34;;;;;;;17.67;9.70;;;;;;;;;;5057925;28;20216;-73
2023/09/30 11:02:05;;;;;;;12.00;6.67;;;;;;;;;;5057237;28;20337;-73
2023/09/30 11:04:46;;;;;;;19.23;11.07;;;;;;;;;;5054931;28;20279;-74
2023/09/30 11:07:20;;;;;;;14.73;7.10;;;;;;;;;;5051149;28;20682;-74
2023/09/30 11:09:49;;;;;;;12.87;6.43;;;;;;;;;;5057189;28;20281;-75
2023/09/30 11:12:17;;;;;;;12.63;6.63;;;;;;;;;;5056239;28;20590;-73
2023/09/30 11:14:45;;;;;;;14.37;7.10;;;;;;;;;;5054964;28;20305;-73
2023/09/30 11:17:13;;;;;;;13.67;6.50;;;;;;;;;;5052220;28;20758;-75
2023/09/30 11:19:47;;;;;;;13.00;6.30;;;;;;;;;;5057064;28;20281;-73
2023/09/30 11:22:15;;;;;;;17.87;6.73;;;;;;;;;;5054335;28;20256;-72
2023/09/30 11:24:45;;;;;;;13.07;6.37;;;;;;;;;;5057308;28;20198;-73
2023/09/30 11:27:24;;;;;;;15.83;7.23;;;;;;;;;;5057234;28;20572;-73
2023/09/30 11:29:52;;;;;;;10.47;5.67;;;;;;;;;;5057102;28;20572;-72
2023/09/30 11:32:27;;;;;;;13.73;6.40;;;;;;;;;;5057159;28;20216;-71
2023/09/30 11:34:55;;;;;;;12.03;6.00;;;;;;;;;;5056795;28;20248;-74
2023/09/30 11:37:23;;;;;;;15.27;6.13;;;;;;;;;;5057055;28;20205;-72
2023/09/30 11:39:51;;;;;;;11.97;6.73;;;;;;;;;;5056796;28;20213;-72
2023/09/30 11:42:20;;;;;;;12.97;5.90;;;;;;;;;;5057158;28;20623;-72
2023/09/30 11:44:48;;;;;;;14.07;7.20;;;;;;;;;;5057406;28;20205;-72
2023/09/30 11:47:16;;;;;;;11.13;5.83;;;;;;;;;;5056638;28;20224;-72
2023/09/30 11:49:45;;;;;;;11.47;6.00;;;;;;;;;;5057139;28;20568;-72
2023/09/30 11:52:15;;;;;;;15.27;6.17;;;;;;;;;;5057354;28;20296;-72
2023/09/30 11:54:44;;;;;;;12.63;6.20;;;;;;;;;;5060764;28;20663;-72
2023/09/30 11:57:15;;;;;;;12.13;5.57;;;;;;;;;;5061287;28;20216;-72
2023/09/30 11:59:45;;;;;;;14.30;6.20;;;;;;;;;;5061567;28;20301;-72
2023/09/30 12:02:14;;;;;;;12.00;5.53;;;;;;;;;;5061237;28;20241;-72
2023/09/30 12:04:43;;;;;;;11.60;5.63;;;;;;;;;;5061548;28;20204;-72
2023/09/30 12:07:12;;;;;;;12.50;6.23;;;;;;;;;;5059254;28;20297;-72
2023/09/30 12:09:40;;;;;;;11.87;5.60;;;;;;;;;;5059262;28;20210;-72
2023/09/30 12:12:10;;;;;;;14.40;5.53;;;;;;;;;;5059262;28;20207;-72
2023/09/30 12:14:39;;;;;;;11.57;5.13;;;;;;;;;;5054121;28;20310;-72
2023/09/30 12:17:10;;;;;;;11.87;5.83;;;;;;;;;;5060829;28;20242;-72
2023/09/30 12:19:40;;;;;;;12.30;5.73;;;;;;;;;;5060750;28;20242;-72
2023/09/30 12:22:09;;;;;;;14.90;5.03;;;;;;;;;;5061075;28;20202;-72
2023/09/30 12:24:37;;;;;;;11.23;5.67;;;;;;;;;;5061094;28;20257;-72
2023/09/30 12:27:05;;;;;;;11.47;5.67;;;;;;;;;;5060654;28;20245;-72
2023/09/30 12:29:33;;;;;;;12.70;5.60;;;;;;;;;;5060702;28;20686;-72
2023/09/30 12:32:02;;;;;;;11.00;5.50;;;;;;;;;;5060657;28;20222;-72
2023/09/30 12:34:32;;;;;;;12.07;5.40;;;;;;;;;;5060026;28;20244;-72
2023/09/30 12:37:00;;;;;;;11.37;5.37;;;;;;;;;;5060493;28;20296;-72
2023/09/30 12:39:33;;;;;;;11.87;5.30;;;;;;;;;;5060272;28;20245;-73
2023/09/30 12:42:01;;;;;;;14.87;5.83;;;;;;;;;;5052623;28;20260;-68
2023/09/30 12:44:29;;;;;;;16.10;6.87;;;;;;;;;;5050691;28;20675;-69
2023/09/30 12:46:57;;;;;;;16.80;6.53;;;;;;;;;;5058013;28;20745;-69
2023/09/30 12:49:25;;;;;;;11.43;6.07;;;;;;;;;;5059870;28;20206;-69
2023/09/30 12:51:55;;;;;;;10.50;5.33;;;;;;;;;;5059847;28;20226;-70
2023/09/30 12:54:24;;;;;;;10.90;5.63;;;;;;;;;;5059577;28;20214;-68
2023/09/30 12:56:52;;;;;;;11.37;5.80;;;;;;;;;;5059599;28;20241;-66
2023/09/30 12:59:24;;;;;;;14.70;6.23;;;;;;;;;;5059010;28;20206;-66
2023/09/30 13:01:52;;;;;;;12.03;5.50;;;;;;;;;;5060114;28;20283;-68
2023/09/30 13:04:20;;;;;;;11.17;5.40;;;;;;;;;;5059057;28;20216;-66
2023/09/30 13:06:50;;;;;;;11.07;5.93;;;;;;;;;;5059971;28;20205;-66
2023/09/30 13:09:20;;;;;;;14.03;5.57;;;;;;;;;;5059885;28;20306;-67
2023/09/30 13:11:47;;;;;;;11.90;5.23;;;;;;;;;;5063142;28;20232;-66
2023/09/30 13:14:15;;;;;;;14.90;6.27;;;;;;;;;;5063119;28;20220;-68
2023/09/30 13:16:45;;;;;;;12.33;5.83;;;;;;;;;;5059833;28;20224;-68
2023/09/30 13:19:13;;;;;;;11.90;5.40;;;;;;;;;;5059360;28;20737;-66
2023/09/30 13:21:41;;;;;;;14.47;5.63;;;;;;;;;;5059300;28;20230;-66
2023/09/30 13:24:10;;;;;;;12.00;5.50;;;;;;;;;;5059698;28;20218;-66
2023/09/30 13:26:39;;;;;;;10.90;4.87;;;;;;;;;;5059442;28;20233;-68
2023/09/30 13:29:09;;;;;;;13.90;5.23;;;;;;;;;;5056960;28;20298;-68
2023/09/30 13:31:38;;;;;;;12.70;6.07;;;;;;;;;;5050755;28;20279;-68
2023/09/30 13:34:06;;;;;;;12.83;6.13;;;;;;;;;;5059264;28;20237;-68
2023/09/30 13:36:34;;;;;;;11.03;5.20;;;;;;;;;;5059343;28;20233;-68
2023/09/30 13:39:05;;;;;;;13.13;5.67;;;;;;;;;;5059053;28;20255;-68
2023/09/30 13:41:34;;;;;;;14.77;5.97;;;;;;;;;;5059409;28;20263;-68
2023/09/30 13:44:05;;;;;;;12.03;6.07;;;;;;;;;;5059057;28;20293;-68
2023/09/30 13:46:33;;;;;;;12.93;5.00;;;;;;;;;;5059456;28;20256;-68
2023/09/30 13:49:01;;;;;;;13.07;5.43;;;;;;;;;;5058881;28;20218;-66
2023/09/30 13:51:29;;;;;;;14.70;5.70;;;;;;;;;;5059229;28;20293;-67
2023/09/30 13:53:57;;;;;;;12.43;5.90;;;;;;;;;;5059193;28;20257;-67
2023/09/30 13:56:25;;;;;;;12.93;6.27;;;;;;;;;;5058987;28;20882;-66
2023/09/30 13:58:53;;;;;;;13.80;6.00;;;;;;;;;;5059275;28;20294;-66
2023/09/30 14:01:22;;;;;;;15.67;6.80;;;;;;;;;;5058725;28;20276;-66
2023/09/30 14:03:55;;;;;;;13.73;5.90;;;;;;;;;;5058592;28;20319;-66
2023/09/30 14:06:23;;;;;;;11.20;5.80;;;;;;;;;;5058647;28;20673;-66
2023/09/30 14:08:52;;;;;;;11.03;6.47;;;;;;;;;;5059053;28;20214;-68
2023/09/30 14:11:20;;;;;;;15.67;6.00;;;;;;;;;;5058833;28;20270;-68
2023/09/30 14:13:49;;;;;;;13.23;5.80;;;;;;;;;;5045654;28;20236;-68
2023/09/30 14:16:16;;;;;;;13.27;5.87;;;;;;;;;;5058545;28;20250;-68
2023/09/30 14:18:47;;;;;;;11.40;5.33;;;;;;;;;;5058144;28;20212;-68
2023/09/30 14:21:16;;;;;;;9.57;5.30;;;;;;;;;;5058348;28;20627;-68
2023/09/30 14:23:46;;;;;;;12.70;5.80;;;;;;;;;;5058742;28;20230;-68
2023/09/30 14:26:14;;;;;;;16.27;5.83;;;;;;;;;;5058172;28;20626;-68
2023/09/30 14:28:42;;;;;;;15.40;6.10;;;;;;;;;;5058623;28;20213;-68
2023/09/30 14:31:10;;;;;;;11.97;5.03;;;;;;;;;;5058297;28;20232;-68
2023/09/30 14:33:38;;;;;;;13.13;6.43;;;;;;;;;;5058204;28;20210;-68
2023/09/30 14:36:07;;;;;;;16.07;6.17;;;;;;;;;;5058347;28;20284;-68
2023/09/30 14:38:36;;;;;;;15.20;7.37;;;;;;;;;;5058175;28;20725;-66
2023/09/30 14:41:07;;;;;;;13.17;5.97;;;;;;;;;;5057960;28;20226;-68
2023/09/30 14:43:35;;;;;;;11.27;5.33;;;;;;;;;;5058397;28;20210;-66